sensor_id;sensor_type;location;lat;lon;timestamp;P1;durP1;ratioP1;P2;durP2;ratioP2
52798;SDS011;38667;42.872;74.622;2023-07-22T00:00:07;11.25;;;3.90;;
52798;SDS011;38667;42.872;74.622;2023-07-22T00:02:34;8.82;;;3.42;;
52798;SDS011;38667;42.872;74.622;2023-07-22T00:05:00;11.70;;;4.32;;
52798;SDS011;38667;42.872;74.622;2023-07-22T00:07:28;15.73;;;5.35;;
52798;SDS011;38667;42.872;74.622;2023-07-22T00:09:54;12.57;;;5.10;;
52798;SDS011;38667;42.872;74.622;2023-07-22T00:12:21;11.13;;;4.80;;
52798;SDS011;38667;42.872;74.622;2023-07-22T00:14:47;8.38;;;4.72;;
52798;SDS011;38667;42.872;74.622;2023-07-22T00:17:13;17.75;;;5.10;;
52798;SDS011;38667;42.872;74.622;2023-07-22T00:19:40;12.43;;;5.10;;
52798;SDS011;38667;42.872;74.622;2023-07-22T00:22:06;18.95;;;4.90;;
52798;SDS011;38667;42.872;74.622;2023-07-22T00:24:34;15.20;;;4.32;;
52798;SDS011;38667;42.872;74.622;2023-07-22T00:27:00;15.65;;;4.75;;
52798;SDS011;38667;42.872;74.622;2023-07-22T00:29:26;22.65;;;4.90;;
52798;SDS011;38667;42.872;74.622;2023-07-22T00:31:53;20.70;;;5.13;;
52798;SDS011;38667;42.872;74.622;2023-07-22T00:34:19;20.63;;;5.30;;
52798;SDS011;38667;42.872;74.622;2023-07-22T00:36:45;16.35;;;4.90;;
52798;SDS011;38667;42.872;74.622;2023-07-22T00:39:12;9.55;;;4.63;;
52798;SDS011;38667;42.872;74.622;2023-07-22T00:41:39;17.98;;;5.95;;
52798;SDS011;38667;42.872;74.622;2023-07-22T00:44:06;17.67;;;5.90;;
52798;SDS011;38667;42.872;74.622;2023-07-22T00:46:32;19.25;;;6.53;;
52798;SDS011;38667;42.872;74.622;2023-07-22T00:48:58;13.68;;;6.03;;
52798;SDS011;38667;42.872;74.622;2023-07-22T00:51:25;12.73;;;6.35;;
52798;SDS011;38667;42.872;74.622;2023-07-22T00:53:51;19.27;;;6.57;;
52798;SDS011;38667;42.872;74.622;2023-07-22T00:56:17;14.75;;;6.28;;
52798;SDS011;38667;42.872;74.622;2023-07-22T00:58:45;18.10;;;5.93;;
52798;SDS011;38667;42.872;74.622;2023-07-22T01:01:12;13.35;;;5.25;;
52798;SDS011;38667;42.872;74.622;2023-07-22T01:03:38;19.33;;;6.85;;
52798;SDS011;38667;42.872;74.622;2023-07-22T01:06:04;12.68;;;5.88;;
52798;SDS011;38667;42.872;74.622;2023-07-22T01:08:31;13.40;;;6.20;;
52798;SDS011;38667;42.872;74.622;2023-07-22T01:10:57;18.55;;;6.60;;
52798;SDS011;38667;42.872;74.622;2023-07-22T01:13:24;16.63;;;6.63;;
52798;SDS011;38667;42.872;74.622;2023-07-22T01:15:52;17.15;;;6.95;;
52798;SDS011;38667;42.872;74.622;2023-07-22T01:18:18;19.27;;;5.75;;
52798;SDS011;38667;42.872;74.622;2023-07-22T01:20:45;15.85;;;6.57;;
52798;SDS011;38667;42.872;74.622;2023-07-22T01:23:13;14.30;;;5.72;;
52798;SDS011;38667;42.872;74.622;2023-07-22T01:25:40;17.90;;;6.28;;
52798;SDS011;38667;42.872;74.622;2023-07-22T01:28:09;17.35;;;5.70;;
52798;SDS011;38667;42.872;74.622;2023-07-22T01:30:35;13.32;;;4.95;;
52798;SDS011;38667;42.872;74.622;2023-07-22T01:33:01;14.57;;;5.38;;
52798;SDS011;38667;42.872;74.622;2023-07-22T01:35:28;15.40;;;5.82;;
52798;SDS011;38667;42.872;74.622;2023-07-22T01:37:54;10.15;;;5.30;;
52798;SDS011;38667;42.872;74.622;2023-07-22T01:40:24;11.80;;;5.90;;
52798;SDS011;38667;42.872;74.622;2023-07-22T01:42:50;22.13;;;8.02;;
52798;SDS011;38667;42.872;74.622;2023-07-22T01:45:17;15.40;;;7.93;;
52798;SDS011;38667;42.872;74.622;2023-07-22T01:47:43;18.40;;;8.70;;
52798;SDS011;38667;42.872;74.622;2023-07-22T01:50:10;17.48;;;9.07;;
52798;SDS011;38667;42.872;74.622;2023-07-22T01:52:36;16.30;;;9.00;;
52798;SDS011;38667;42.872;74.622;2023-07-22T01:55:02;23.10;;;10.23;;
52798;SDS011;38667;42.872;74.622;2023-07-22T01:57:31;19.70;;;9.43;;
52798;SDS011;38667;42.872;74.622;2023-07-22T01:59:57;17.48;;;8.40;;
52798;SDS011;38667;42.872;74.622;2023-07-22T02:02:24;19.67;;;8.20;;
52798;SDS011;38667;42.872;74.622;2023-07-22T02:04:50;19.77;;;8.45;;
52798;SDS011;38667;42.872;74.622;2023-07-22T02:07:17;13.52;;;7.68;;
52798;SDS011;38667;42.872;74.622;2023-07-22T02:09:43;18.15;;;7.65;;
52798;SDS011;38667;42.872;74.622;2023-07-22T02:12:09;12.48;;;6.30;;
52798;SDS011;38667;42.872;74.622;2023-07-22T02:14:38;18.45;;;6.40;;
52798;SDS011;38667;42.872;74.622;2023-07-22T02:17:04;15.60;;;5.80;;
52798;SDS011;38667;42.872;74.622;2023-07-22T02:19:31;12.32;;;5.40;;
52798;SDS011;38667;42.872;74.622;2023-07-22T02:21:57;11.02;;;4.90;;
52798;SDS011;38667;42.872;74.622;2023-07-22T02:24:23;10.38;;;4.90;;
52798;SDS011;38667;42.872;74.622;2023-07-22T02:26:49;11.25;;;4.63;;
52798;SDS011;38667;42.872;74.622;2023-07-22T02:29:16;11.77;;;4.32;;
52798;SDS011;38667;42.872;74.622;2023-07-22T02:31:44;12.48;;;4.20;;
52798;SDS011;38667;42.872;74.622;2023-07-22T02:34:10;9.32;;;4.38;;
52798;SDS011;38667;42.872;74.622;2023-07-22T02:36:36;8.43;;;3.60;;
52798;SDS011;38667;42.872;74.622;2023-07-22T02:39:03;12.20;;;3.65;;
52798;SDS011;38667;42.872;74.622;2023-07-22T02:41:29;6.45;;;3.20;;
52798;SDS011;38667;42.872;74.622;2023-07-22T02:43:55;7.72;;;2.80;;
52798;SDS011;38667;42.872;74.622;2023-07-22T02:46:21;9.32;;;2.80;;
52798;SDS011;38667;42.872;74.622;2023-07-22T02:48:49;8.60;;;2.83;;
52798;SDS011;38667;42.872;74.622;2023-07-22T02:51:16;4.93;;;2.60;;
52798;SDS011;38667;42.872;74.622;2023-07-22T02:53:42;10.57;;;2.80;;
52798;SDS011;38667;42.872;74.622;2023-07-22T02:56:08;9.70;;;2.70;;
52798;SDS011;38667;42.872;74.622;2023-07-22T02:58:35;10.27;;;3.10;;
52798;SDS011;38667;42.872;74.622;2023-07-22T03:01:01;6.50;;;2.70;;
52798;SDS011;38667;42.872;74.622;2023-07-22T03:03:29;6.35;;;2.40;;
52798;SDS011;38667;42.872;74.622;2023-07-22T03:05:56;14.30;;;3.20;;
52798;SDS011;38667;42.872;74.622;2023-07-22T03:08:23;14.27;;;3.15;;
52798;SDS011;38667;42.872;74.622;2023-07-22T03:10:50;10.15;;;3.22;;
52798;SDS011;38667;42.872;74.622;2023-07-22T03:13:16;13.13;;;3.60;;
52798;SDS011;38667;42.872;74.622;2023-07-22T03:15:43;7.65;;;3.03;;
52798;SDS011;38667;42.872;74.622;2023-07-22T03:18:09;8.85;;;2.95;;
52798;SDS011;38667;42.872;74.622;2023-07-22T03:20:36;8.57;;;3.20;;
52798;SDS011;38667;42.872;74.622;2023-07-22T03:23:04;8.02;;;2.80;;
52798;SDS011;38667;42.872;74.622;2023-07-22T03:25:31;7.43;;;3.63;;
52798;SDS011;38667;42.872;74.622;2023-07-22T03:27:58;14.98;;;3.60;;
52798;SDS011;38667;42.872;74.622;2023-07-22T03:30:27;10.70;;;3.53;;
52798;SDS011;38667;42.872;74.622;2023-07-22T03:32:54;14.02;;;4.00;;
52798;SDS011;38667;42.872;74.622;2023-07-22T03:35:20;18.30;;;3.72;;
52798;SDS011;38667;42.872;74.622;2023-07-22T03:37:46;8.98;;;2.78;;
52798;SDS011;38667;42.872;74.622;2023-07-22T03:40:14;13.30;;;3.70;;
52798;SDS011;38667;42.872;74.622;2023-07-22T03:42:40;8.90;;;3.22;;
52798;SDS011;38667;42.872;74.622;2023-07-22T03:45:07;10.02;;;2.88;;
52798;SDS011;38667;42.872;74.622;2023-07-22T03:47:34;10.63;;;3.15;;
52798;SDS011;38667;42.872;74.622;2023-07-22T03:50:00;6.30;;;2.80;;
52798;SDS011;38667;42.872;74.622;2023-07-22T03:52:27;6.63;;;2.28;;
52798;SDS011;38667;42.872;74.622;2023-07-22T03:54:53;6.18;;;2.40;;
52798;SDS011;38667;42.872;74.622;2023-07-22T03:57:22;6.47;;;2.40;;
52798;SDS011;38667;42.872;74.622;2023-07-22T03:59:51;11.63;;;3.22;;
52798;SDS011;38667;42.872;74.622;2023-07-22T04:02:17;13.43;;;3.67;;
52798;SDS011;38667;42.872;74.622;2023-07-22T04:04:43;14.27;;;3.28;;
52798;SDS011;38667;42.872;74.622;2023-07-22T04:07:10;6.50;;;2.70;;
52798;SDS011;38667;42.872;74.622;2023-07-22T04:09:36;11.60;;;3.03;;
52798;SDS011;38667;42.872;74.622;2023-07-22T04:12:03;9.93;;;3.17;;
52798;SDS011;38667;42.872;74.622;2023-07-22T04:14:31;9.80;;;3.05;;
52798;SDS011;38667;42.872;74.622;2023-07-22T04:16:57;12.85;;;3.65;;
52798;SDS011;38667;42.872;74.622;2023-07-22T04:19:24;11.38;;;3.35;;
52798;SDS011;38667;42.872;74.622;2023-07-22T04:21:50;11.70;;;3.50;;
52798;SDS011;38667;42.872;74.622;2023-07-22T04:24:16;15.32;;;3.60;;
52798;SDS011;38667;42.872;74.622;2023-07-22T04:26:43;8.82;;;3.55;;
52798;SDS011;38667;42.872;74.622;2023-07-22T04:29:09;8.20;;;3.00;;
52798;SDS011;38667;42.872;74.622;2023-07-22T04:31:37;7.88;;;2.28;;
52798;SDS011;38667;42.872;74.622;2023-07-22T04:34:04;5.95;;;1.90;;
52798;SDS011;38667;42.872;74.622;2023-07-22T04:36:30;3.42;;;1.90;;
52798;SDS011;38667;42.872;74.622;2023-07-22T04:38:56;6.70;;;2.13;;
52798;SDS011;38667;42.872;74.622;2023-07-22T04:41:23;13.48;;;2.97;;
52798;SDS011;38667;42.872;74.622;2023-07-22T04:43:49;9.13;;;2.92;;
52798;SDS011;38667;42.872;74.622;2023-07-22T04:46:16;12.73;;;3.00;;
52798;SDS011;38667;42.872;74.622;2023-07-22T04:48:43;6.25;;;2.40;;
52798;SDS011;38667;42.872;74.622;2023-07-22T04:51:10;5.57;;;2.20;;
52798;SDS011;38667;42.872;74.622;2023-07-22T04:53:36;9.02;;;2.00;;
52798;SDS011;38667;42.872;74.622;2023-07-22T04:56:03;9.82;;;2.15;;
52798;SDS011;38667;42.872;74.622;2023-07-22T04:58:29;5.80;;;1.63;;
52798;SDS011;38667;42.872;74.622;2023-07-22T05:00:55;6.90;;;1.98;;
52798;SDS011;38667;42.872;74.622;2023-07-22T05:03:23;4.28;;;2.00;;
52798;SDS011;38667;42.872;74.622;2023-07-22T05:05:51;6.15;;;1.83;;
52798;SDS011;38667;42.872;74.622;2023-07-22T05:08:17;6.90;;;1.92;;
52798;SDS011;38667;42.872;74.622;2023-07-22T05:10:44;3.88;;;1.60;;
52798;SDS011;38667;42.872;74.622;2023-07-22T05:13:11;4.10;;;1.40;;
52798;SDS011;38667;42.872;74.622;2023-07-22T05:15:37;5.22;;;2.15;;
52798;SDS011;38667;42.872;74.622;2023-07-22T05:18:04;5.22;;;2.33;;
52798;SDS011;38667;42.872;74.622;2023-07-22T05:20:30;7.85;;;2.25;;
52798;SDS011;38667;42.872;74.622;2023-07-22T05:22:58;7.22;;;2.35;;
52798;SDS011;38667;42.872;74.622;2023-07-22T05:25:24;4.10;;;2.00;;
52798;SDS011;38667;42.872;74.622;2023-07-22T05:27:50;5.80;;;1.95;;
52798;SDS011;38667;42.872;74.622;2023-07-22T05:30:17;4.72;;;2.08;;
52798;SDS011;38667;42.872;74.622;2023-07-22T05:32:43;4.65;;;2.28;;
52798;SDS011;38667;42.872;74.622;2023-07-22T05:35:09;6.13;;;2.38;;
52798;SDS011;38667;42.872;74.622;2023-07-22T05:37:36;6.72;;;2.22;;
52798;SDS011;38667;42.872;74.622;2023-07-22T05:40:04;7.38;;;2.00;;
52798;SDS011;38667;42.872;74.622;2023-07-22T05:42:31;6.50;;;2.20;;
52798;SDS011;38667;42.872;74.622;2023-07-22T05:44:58;4.55;;;1.98;;
52798;SDS011;38667;42.872;74.622;2023-07-22T05:47:25;5.43;;;2.15;;
52798;SDS011;38667;42.872;74.622;2023-07-22T05:49:51;5.85;;;2.10;;
52798;SDS011;38667;42.872;74.622;2023-07-22T05:52:18;6.22;;;2.08;;
52798;SDS011;38667;42.872;74.622;2023-07-22T05:54:44;5.45;;;2.33;;
52798;SDS011;38667;42.872;74.622;2023-07-22T05:57:12;7.03;;;2.42;;
52798;SDS011;38667;42.872;74.622;2023-07-22T05:59:38;10.00;;;2.60;;
52798;SDS011;38667;42.872;74.622;2023-07-22T06:02:05;8.43;;;3.03;;
52798;SDS011;38667;42.872;74.622;2023-07-22T06:04:31;5.65;;;2.67;;
52798;SDS011;38667;42.872;74.622;2023-07-22T06:06:58;7.97;;;2.20;;
52798;SDS011;38667;42.872;74.622;2023-07-22T06:09:24;7.88;;;2.40;;
52798;SDS011;38667;42.872;74.622;2023-07-22T06:11:50;13.57;;;2.65;;
52798;SDS011;38667;42.872;74.622;2023-07-22T06:14:18;10.30;;;2.80;;
52798;SDS011;38667;42.872;74.622;2023-07-22T06:16:45;13.05;;;2.80;;
52798;SDS011;38667;42.872;74.622;2023-07-22T06:19:11;6.80;;;2.78;;
52798;SDS011;38667;42.872;74.622;2023-07-22T06:21:37;15.40;;;4.18;;
52798;SDS011;38667;42.872;74.622;2023-07-22T06:24:04;13.40;;;3.28;;
52798;SDS011;38667;42.872;74.622;2023-07-22T06:26:31;9.27;;;2.45;;
52798;SDS011;38667;42.872;74.622;2023-07-22T06:28:57;7.85;;;2.58;;
52798;SDS011;38667;42.872;74.622;2023-07-22T06:31:25;8.50;;;2.70;;
52798;SDS011;38667;42.872;74.622;2023-07-22T06:33:51;9.73;;;2.63;;
52798;SDS011;38667;42.872;74.622;2023-07-22T06:36:17;7.63;;;2.55;;
52798;SDS011;38667;42.872;74.622;2023-07-22T06:38:44;12.55;;;2.90;;
52798;SDS011;38667;42.872;74.622;2023-07-22T06:41:10;5.25;;;2.33;;
52798;SDS011;38667;42.872;74.622;2023-07-22T06:43:36;10.57;;;2.92;;
52798;SDS011;38667;42.872;74.622;2023-07-22T06:46:03;10.52;;;2.67;;
52798;SDS011;38667;42.872;74.622;2023-07-22T06:48:30;8.38;;;2.83;;
52798;SDS011;38667;42.872;74.622;2023-07-22T06:50:57;8.45;;;2.83;;
52798;SDS011;38667;42.872;74.622;2023-07-22T06:53:23;8.63;;;2.90;;
52798;SDS011;38667;42.872;74.622;2023-07-22T06:55:49;9.73;;;2.80;;
52798;SDS011;38667;42.872;74.622;2023-07-22T06:58:16;4.95;;;2.40;;
52798;SDS011;38667;42.872;74.622;2023-07-22T07:00:42;6.65;;;2.53;;
52798;SDS011;38667;42.872;74.622;2023-07-22T07:03:09;6.13;;;2.63;;
52798;SDS011;38667;42.872;74.622;2023-07-22T07:05:37;13.10;;;3.20;;
52798;SDS011;38667;42.872;74.622;2023-07-22T07:08:03;9.48;;;2.85;;
52798;SDS011;38667;42.872;74.622;2023-07-22T07:10:29;12.35;;;2.80;;
52798;SDS011;38667;42.872;74.622;2023-07-22T07:12:56;6.57;;;2.10;;
52798;SDS011;38667;42.872;74.622;2023-07-22T07:15:22;4.53;;;2.38;;
52798;SDS011;38667;42.872;74.622;2023-07-22T07:17:49;12.30;;;3.15;;
52798;SDS011;38667;42.872;74.622;2023-07-22T07:20:15;6.35;;;2.75;;
52798;SDS011;38667;42.872;74.622;2023-07-22T07:22:43;6.82;;;2.90;;
52798;SDS011;38667;42.872;74.622;2023-07-22T07:25:09;6.00;;;2.60;;
52798;SDS011;38667;42.872;74.622;2023-07-22T07:27:35;7.90;;;3.25;;
52798;SDS011;38667;42.872;74.622;2023-07-22T07:30:02;6.45;;;2.38;;
52798;SDS011;38667;42.872;74.622;2023-07-22T07:32:28;11.15;;;2.42;;
52798;SDS011;38667;42.872;74.622;2023-07-22T07:34:55;10.65;;;2.83;;
52798;SDS011;38667;42.872;74.622;2023-07-22T07:37:22;6.53;;;2.40;;
52798;SDS011;38667;42.872;74.622;2023-07-22T07:39:50;8.23;;;2.50;;
52798;SDS011;38667;42.872;74.622;2023-07-22T07:42:16;8.45;;;2.92;;
52798;SDS011;38667;42.872;74.622;2023-07-22T07:44:43;9.02;;;2.63;;
52798;SDS011;38667;42.872;74.622;2023-07-22T07:47:09;10.85;;;2.90;;
52798;SDS011;38667;42.872;74.622;2023-07-22T07:49:35;12.00;;;2.45;;
52798;SDS011;38667;42.872;74.622;2023-07-22T07:52:02;5.63;;;2.35;;
52798;SDS011;38667;42.872;74.622;2023-07-22T07:54:28;7.75;;;2.20;;
52798;SDS011;38667;42.872;74.622;2023-07-22T07:56:56;5.63;;;2.47;;
52798;SDS011;38667;42.872;74.622;2023-07-22T07:59:23;6.93;;;1.75;;
52798;SDS011;38667;42.872;74.622;2023-07-22T08:01:49;6.82;;;2.33;;
52798;SDS011;38667;42.872;74.622;2023-07-22T08:04:15;9.38;;;2.72;;
52798;SDS011;38667;42.872;74.622;2023-07-22T08:06:42;8.05;;;1.90;;
52798;SDS011;38667;42.872;74.622;2023-07-22T08:09:08;5.13;;;2.33;;
52798;SDS011;38667;42.872;74.622;2023-07-22T08:11:34;8.40;;;2.53;;
52798;SDS011;38667;42.872;74.622;2023-07-22T08:14:02;6.47;;;2.80;;
52798;SDS011;38667;42.872;74.622;2023-07-22T08:16:28;8.70;;;2.67;;
52798;SDS011;38667;42.872;74.622;2023-07-22T08:18:55;6.80;;;2.60;;
52798;SDS011;38667;42.872;74.622;2023-07-22T08:21:21;8.85;;;2.40;;
52798;SDS011;38667;42.872;74.622;2023-07-22T08:23:47;7.28;;;2.40;;
52798;SDS011;38667;42.872;74.622;2023-07-22T08:26:14;10.20;;;2.42;;
52798;SDS011;38667;42.872;74.622;2023-07-22T08:28:40;10.45;;;2.20;;
52798;SDS011;38667;42.872;74.622;2023-07-22T08:31:08;6.75;;;2.80;;
52798;SDS011;38667;42.872;74.622;2023-07-22T08:33:34;9.90;;;2.10;;
52798;SDS011;38667;42.872;74.622;2023-07-22T08:36:00;9.35;;;2.30;;
52798;SDS011;38667;42.872;74.622;2023-07-22T08:38:27;6.20;;;2.17;;
52798;SDS011;38667;42.872;74.622;2023-07-22T08:40:53;5.50;;;2.50;;
52798;SDS011;38667;42.872;74.622;2023-07-22T08:43:20;7.85;;;3.35;;
52798;SDS011;38667;42.872;74.622;2023-07-22T08:45:47;9.60;;;3.40;;
52798;SDS011;38667;42.872;74.622;2023-07-22T08:48:16;6.45;;;2.80;;
52798;SDS011;38667;42.872;74.622;2023-07-22T08:50:44;6.65;;;2.97;;
52798;SDS011;38667;42.872;74.622;2023-07-22T08:53:10;14.38;;;2.88;;
52798;SDS011;38667;42.872;74.622;2023-07-22T08:55:38;8.68;;;2.42;;
52798;SDS011;38667;42.872;74.622;2023-07-22T08:58:04;7.82;;;2.45;;
52798;SDS011;38667;42.872;74.622;2023-07-22T09:00:33;10.55;;;2.55;;
52798;SDS011;38667;42.872;74.622;2023-07-22T09:02:59;7.68;;;2.47;;
52798;SDS011;38667;42.872;74.622;2023-07-22T09:05:29;8.68;;;2.50;;
52798;SDS011;38667;42.872;74.622;2023-07-22T09:07:57;6.25;;;2.88;;
52798;SDS011;38667;42.872;74.622;2023-07-22T09:10:24;9.35;;;2.30;;
52798;SDS011;38667;42.872;74.622;2023-07-22T09:12:53;6.18;;;2.22;;
52798;SDS011;38667;42.872;74.622;2023-07-22T09:15:19;10.02;;;2.90;;
52798;SDS011;38667;42.872;74.622;2023-07-22T09:17:46;9.63;;;4.65;;
52798;SDS011;38667;42.872;74.622;2023-07-22T09:20:13;16.42;;;10.32;;
52798;SDS011;38667;42.872;74.622;2023-07-22T09:22:44;14.65;;;7.57;;
52798;SDS011;38667;42.872;74.622;2023-07-22T09:25:15;9.07;;;3.30;;
52798;SDS011;38667;42.872;74.622;2023-07-22T09:27:42;9.63;;;3.47;;
52798;SDS011;38667;42.872;74.622;2023-07-22T09:30:22;5.50;;;2.15;;
52798;SDS011;38667;42.872;74.622;2023-07-22T09:32:49;8.75;;;3.25;;
52798;SDS011;38667;42.872;74.622;2023-07-22T09:35:17;6.22;;;3.05;;
52798;SDS011;38667;42.872;74.622;2023-07-22T09:37:45;10.82;;;2.53;;
52798;SDS011;38667;42.872;74.622;2023-07-22T09:40:16;9.98;;;2.47;;
52798;SDS011;38667;42.872;74.622;2023-07-22T09:42:45;13.35;;;2.90;;
52798;SDS011;38667;42.872;74.622;2023-07-22T09:45:12;5.53;;;2.50;;
52798;SDS011;38667;42.872;74.622;2023-07-22T09:47:41;8.98;;;2.75;;
52798;SDS011;38667;42.872;74.622;2023-07-22T09:50:13;6.18;;;2.35;;
52798;SDS011;38667;42.872;74.622;2023-07-22T09:52:57;8.52;;;2.45;;
52798;SDS011;38667;42.872;74.622;2023-07-22T09:55:25;7.93;;;2.38;;
52798;SDS011;38667;42.872;74.622;2023-07-22T09:57:52;9.38;;;2.60;;
52798;SDS011;38667;42.872;74.622;2023-07-22T10:00:19;5.80;;;2.47;;
52798;SDS011;38667;42.872;74.622;2023-07-22T10:02:47;4.60;;;2.22;;
52798;SDS011;38667;42.872;74.622;2023-07-22T10:05:14;5.10;;;2.50;;
52798;SDS011;38667;42.872;74.622;2023-07-22T10:07:43;5.65;;;2.13;;
52798;SDS011;38667;42.872;74.622;2023-07-22T10:10:12;9.05;;;2.63;;
52798;SDS011;38667;42.872;74.622;2023-07-22T10:12:40;5.47;;;2.10;;
52798;SDS011;38667;42.872;74.622;2023-07-22T10:15:08;5.40;;;2.83;;
52798;SDS011;38667;42.872;74.622;2023-07-22T10:17:35;6.03;;;2.60;;
52798;SDS011;38667;42.872;74.622;2023-07-22T10:20:02;7.32;;;2.80;;
52798;SDS011;38667;42.872;74.622;2023-07-22T10:22:29;6.15;;;2.78;;
52798;SDS011;38667;42.872;74.622;2023-07-22T10:24:55;6.88;;;2.80;;
52798;SDS011;38667;42.872;74.622;2023-07-22T10:27:24;11.82;;;2.50;;
52798;SDS011;38667;42.872;74.622;2023-07-22T10:29:51;12.20;;;2.95;;
52798;SDS011;38667;42.872;74.622;2023-07-22T10:32:19;6.88;;;2.55;;
52798;SDS011;38667;42.872;74.622;2023-07-22T10:34:45;7.13;;;2.55;;
52798;SDS011;38667;42.872;74.622;2023-07-22T10:37:11;11.70;;;2.70;;
52798;SDS011;38667;42.872;74.622;2023-07-22T10:39:38;8.07;;;2.50;;
52798;SDS011;38667;42.872;74.622;2023-07-22T10:42:04;5.25;;;2.40;;
52798;SDS011;38667;42.872;74.622;2023-07-22T10:44:33;11.48;;;2.78;;
52798;SDS011;38667;42.872;74.622;2023-07-22T10:47:02;8.23;;;2.83;;
52798;SDS011;38667;42.872;74.622;2023-07-22T10:49:42;5.75;;;2.40;;
52798;SDS011;38667;42.872;74.622;2023-07-22T10:52:09;11.63;;;4.07;;
52798;SDS011;38667;42.872;74.622;2023-07-22T10:54:36;6.82;;;2.53;;
52798;SDS011;38667;42.872;74.622;2023-07-22T10:57:03;10.65;;;2.67;;
52798;SDS011;38667;42.872;74.622;2023-07-22T10:59:50;5.95;;;2.67;;
52798;SDS011;38667;42.872;74.622;2023-07-22T11:02:22;9.02;;;2.78;;
52798;SDS011;38667;42.872;74.622;2023-07-22T11:04:49;8.27;;;3.50;;
52798;SDS011;38667;42.872;74.622;2023-07-22T11:07:16;8.60;;;3.00;;
52798;SDS011;38667;42.872;74.622;2023-07-22T11:09:56;9.20;;;2.97;;
52798;SDS011;38667;42.872;74.622;2023-07-22T11:12:22;8.85;;;3.28;;
52798;SDS011;38667;42.872;74.622;2023-07-22T11:14:54;185.15;;;16.08;;
52798;SDS011;38667;42.872;74.622;2023-07-22T11:17:29;14.52;;;3.05;;
52798;SDS011;38667;42.872;74.622;2023-07-22T11:19:56;11.98;;;2.85;;
52798;SDS011;38667;42.872;74.622;2023-07-22T11:22:22;11.13;;;3.22;;
52798;SDS011;38667;42.872;74.622;2023-07-22T11:24:49;8.98;;;3.42;;
52798;SDS011;38667;42.872;74.622;2023-07-22T11:27:15;11.23;;;5.80;;
52798;SDS011;38667;42.872;74.622;2023-07-22T11:29:41;13.30;;;9.40;;
52798;SDS011;38667;42.872;74.622;2023-07-22T11:32:16;15.63;;;6.15;;
52798;SDS011;38667;42.872;74.622;2023-07-22T11:34:42;12.82;;;8.20;;
52798;SDS011;38667;42.872;74.622;2023-07-22T11:37:09;7.40;;;4.55;;
52798;SDS011;38667;42.872;74.622;2023-07-22T11:39:35;9.25;;;4.28;;
52798;SDS011;38667;42.872;74.622;2023-07-22T11:42:02;7.40;;;2.70;;
52798;SDS011;38667;42.872;74.622;2023-07-22T11:44:29;5.70;;;2.63;;
52798;SDS011;38667;42.872;74.622;2023-07-22T11:46:57;7.55;;;2.25;;
52798;SDS011;38667;42.872;74.622;2023-07-22T11:49:26;8.90;;;2.67;;
52798;SDS011;38667;42.872;74.622;2023-07-22T11:51:54;5.60;;;2.35;;
52798;SDS011;38667;42.872;74.622;2023-07-22T11:54:21;8.18;;;3.30;;
52798;SDS011;38667;42.872;74.622;2023-07-22T11:56:48;9.18;;;2.60;;
52798;SDS011;38667;42.872;74.622;2023-07-22T11:59:14;9.70;;;2.85;;
52798;SDS011;38667;42.872;74.622;2023-07-22T12:01:42;9.10;;;3.00;;
52798;SDS011;38667;42.872;74.622;2023-07-22T12:04:10;8.18;;;3.05;;
52798;SDS011;38667;42.872;74.622;2023-07-22T12:06:38;7.50;;;2.67;;
52798;SDS011;38667;42.872;74.622;2023-07-22T12:09:06;6.55;;;3.85;;
52798;SDS011;38667;42.872;74.622;2023-07-22T12:11:33;4.82;;;2.70;;
52798;SDS011;38667;42.872;74.622;2023-07-22T12:14:09;9.57;;;3.03;;
52798;SDS011;38667;42.872;74.622;2023-07-22T12:16:36;6.03;;;2.30;;
52798;SDS011;38667;42.872;74.622;2023-07-22T12:19:04;6.00;;;2.70;;
52798;SDS011;38667;42.872;74.622;2023-07-22T12:21:30;9.55;;;2.75;;
52798;SDS011;38667;42.872;74.622;2023-07-22T12:23:59;7.93;;;3.00;;
52798;SDS011;38667;42.872;74.622;2023-07-22T12:26:25;9.52;;;4.32;;
52798;SDS011;38667;42.872;74.622;2023-07-22T12:28:52;19.98;;;13.80;;
52798;SDS011;38667;42.872;74.622;2023-07-22T12:31:18;10.75;;;5.07;;
52798;SDS011;38667;42.872;74.622;2023-07-22T12:33:45;4.25;;;3.10;;
52798;SDS011;38667;42.872;74.622;2023-07-22T12:36:11;9.45;;;3.75;;
52798;SDS011;38667;42.872;74.622;2023-07-22T12:38:37;6.45;;;2.92;;
52798;SDS011;38667;42.872;74.622;2023-07-22T12:41:05;7.30;;;3.38;;
52798;SDS011;38667;42.872;74.622;2023-07-22T12:43:31;7.70;;;2.70;;
52798;SDS011;38667;42.872;74.622;2023-07-22T12:45:58;8.32;;;2.60;;
52798;SDS011;38667;42.872;74.622;2023-07-22T12:48:24;5.93;;;2.60;;
52798;SDS011;38667;42.872;74.622;2023-07-22T12:50:50;7.68;;;2.75;;
52798;SDS011;38667;42.872;74.622;2023-07-22T12:53:17;6.65;;;3.05;;
52798;SDS011;38667;42.872;74.622;2023-07-22T12:55:43;7.28;;;2.85;;
52798;SDS011;38667;42.872;74.622;2023-07-22T12:58:11;8.68;;;3.10;;
52798;SDS011;38667;42.872;74.622;2023-07-22T13:00:39;5.90;;;2.80;;
52798;SDS011;38667;42.872;74.622;2023-07-22T13:03:05;6.68;;;2.53;;
52798;SDS011;38667;42.872;74.622;2023-07-22T13:05:31;5.00;;;2.40;;
52798;SDS011;38667;42.872;74.622;2023-07-22T13:07:58;7.63;;;2.72;;
52798;SDS011;38667;42.872;74.622;2023-07-22T13:10:24;7.20;;;2.58;;
52798;SDS011;38667;42.872;74.622;2023-07-22T13:12:50;6.05;;;2.10;;
52798;SDS011;38667;42.872;74.622;2023-07-22T13:15:18;5.70;;;2.65;;
52798;SDS011;38667;42.872;74.622;2023-07-22T13:17:45;5.40;;;2.28;;
52798;SDS011;38667;42.872;74.622;2023-07-22T13:20:11;7.50;;;2.28;;
52798;SDS011;38667;42.872;74.622;2023-07-22T13:22:38;7.50;;;2.65;;
52798;SDS011;38667;42.872;74.622;2023-07-22T13:25:04;8.35;;;3.33;;
52798;SDS011;38667;42.872;74.622;2023-07-22T13:27:31;3.90;;;2.72;;
52798;SDS011;38667;42.872;74.622;2023-07-22T13:29:58;6.93;;;2.97;;
52798;SDS011;38667;42.872;74.622;2023-07-22T13:32:26;6.95;;;2.75;;
52798;SDS011;38667;42.872;74.622;2023-07-22T13:34:52;4.72;;;2.95;;
52798;SDS011;38667;42.872;74.622;2023-07-22T13:37:19;7.93;;;3.30;;
52798;SDS011;38667;42.872;74.622;2023-07-22T13:39:45;6.68;;;2.90;;
52798;SDS011;38667;42.872;74.622;2023-07-22T13:42:11;7.78;;;2.63;;
52798;SDS011;38667;42.872;74.622;2023-07-22T13:44:38;5.55;;;2.35;;
52798;SDS011;38667;42.872;74.622;2023-07-22T13:47:04;4.63;;;2.58;;
52798;SDS011;38667;42.872;74.622;2023-07-22T13:49:32;4.95;;;2.42;;
52798;SDS011;38667;42.872;74.622;2023-07-22T13:51:58;4.50;;;2.67;;
52798;SDS011;38667;42.872;74.622;2023-07-22T13:54:24;7.75;;;2.45;;
52798;SDS011;38667;42.872;74.622;2023-07-22T13:56:51;6.28;;;2.58;;
52798;SDS011;38667;42.872;74.622;2023-07-22T13:59:17;8.80;;;2.88;;
52798;SDS011;38667;42.872;74.622;2023-07-22T14:01:43;8.45;;;3.08;;
52798;SDS011;38667;42.872;74.622;2023-07-22T14:04:10;6.85;;;2.90;;
52798;SDS011;38667;42.872;74.622;2023-07-22T14:06:38;5.88;;;3.20;;
52798;SDS011;38667;42.872;74.622;2023-07-22T14:09:04;4.72;;;2.90;;
52798;SDS011;38667;42.872;74.622;2023-07-22T14:11:30;4.68;;;3.08;;
52798;SDS011;38667;42.872;74.622;2023-07-22T14:13:56;9.75;;;3.10;;
52798;SDS011;38667;42.872;74.622;2023-07-22T14:16:23;5.30;;;3.22;;
52798;SDS011;38667;42.872;74.622;2023-07-22T14:18:49;6.70;;;3.38;;
52798;SDS011;38667;42.872;74.622;2023-07-22T14:21:15;6.95;;;3.08;;
52798;SDS011;38667;42.872;74.622;2023-07-22T14:23:43;10.13;;;5.10;;
52798;SDS011;38667;42.872;74.622;2023-07-22T14:26:10;8.90;;;4.40;;
52798;SDS011;38667;42.872;74.622;2023-07-22T14:28:36;10.40;;;4.57;;